createdAt,value
2019-03-26T00:00:02.427Z,1.19
2019-03-26T00:00:06.733Z,1.21
2019-03-26T00:00:11.041Z,1.2
2019-03-26T00:00:15.340Z,1.2
2019-03-26T00:00:19.643Z,1.19
2019-03-26T00:00:23.962Z,1.2
2019-03-26T00:00:28.257Z,1.2
2019-03-26T00:00:32.667Z,1.2
2019-03-26T00:00:36.974Z,1.2
2019-03-26T00:00:41.175Z,1.19
2019-03-26T00:00:45.474Z,1.19
2019-03-26T00:00:49.862Z,1.2
2019-03-26T00:00:54.169Z,1.2
2019-03-26T00:00:58.471Z,1.2
2019-03-26T00:01:02.777Z,1.2
2019-03-26T00:01:07.073Z,1.19
2019-03-26T00:01:11.372Z,1.19
2019-03-26T00:01:15.480Z,1.19
2019-03-26T00:01:19.774Z,1.19
2019-03-26T00:01:24.089Z,1.19
2019-03-26T00:01:28.392Z,1.19
2019-03-26T00:01:32.687Z,1.2
2019-03-26T00:01:36.979Z,1.2
2019-03-26T00:01:41.286Z,1.2
2019-03-26T00:01:45.493Z,1.2
2019-03-26T00:01:49.788Z,1.21
2019-03-26T00:01:53.998Z,1.2
2019-03-26T00:01:58.300Z,1.19
2019-03-26T00:02:02.617Z,1.2
2019-03-26T00:02:06.917Z,1.2
2019-03-26T00:02:11.208Z,1.19
2019-03-26T00:02:15.501Z,1.2
2019-03-26T00:02:19.714Z,1.2
2019-03-26T00:02:24.012Z,1.2
2019-03-26T00:02:28.317Z,1.2
2019-03-26T00:02:32.612Z,1.2
2019-03-26T00:02:36.908Z,1.2
2019-03-26T00:02:41.202Z,1.2
2019-03-26T00:02:45.519Z,1.19
2019-03-26T00:02:49.834Z,1.19
2019-03-26T00:02:54.132Z,1.2
2019-03-26T00:02:58.424Z,1.2
2019-03-26T00:03:02.718Z,1.2
2019-03-26T00:03:07.021Z,1.19
2019-03-26T00:03:11.323Z,1.2
2019-03-26T00:03:15.615Z,1.21
2019-03-26T00:03:19.907Z,1.2
2019-03-26T00:03:24.199Z,1.2
2019-03-26T00:03:28.498Z,1.21
2019-03-26T00:03:32.791Z,1.2
2019-03-26T00:03:37.088Z,1.2
2019-03-26T00:03:41.386Z,1.2
2019-03-26T00:03:45.592Z,1.2
2019-03-26T00:03:49.922Z,1.21
2019-03-26T00:04:07.895Z,1.2
2019-03-26T00:04:12.095Z,1.2
2019-03-26T00:04:16.297Z,1.2
2019-03-26T00:04:20.610Z,1.2
2019-03-26T00:04:24.995Z,1.21
2019-03-26T00:04:29.342Z,1.21
2019-03-26T00:04:33.639Z,1.21
2019-03-26T00:04:37.938Z,1.2
2019-03-26T00:04:42.244Z,1.21
2019-03-26T00:04:46.533Z,1.2
2019-03-26T00:04:50.849Z,1.21
2019-03-26T00:04:55.143Z,1.21
2019-03-26T00:04:59.456Z,1.2
2019-03-26T00:05:03.989Z,1.2
2019-03-26T00:05:08.289Z,1.2
2019-03-26T00:05:12.661Z,1.2
2019-03-26T00:05:16.950Z,1.2
2019-03-26T00:05:21.245Z,1.2
2019-03-26T00:05:25.555Z,1.2
2019-03-26T00:05:29.867Z,1.2
2019-03-26T00:05:34.166Z,1.19
2019-03-26T00:05:38.465Z,1.2
2019-03-26T00:05:42.765Z,1.2
2019-03-26T00:05:47.071Z,1.2
2019-03-26T00:05:51.273Z,1.2
2019-03-26T00:05:55.569Z,1.21
2019-03-26T00:05:59.767Z,1.2
2019-03-26T00:06:04.187Z,1.2
2019-03-26T00:06:08.513Z,1.2
2019-03-26T00:06:12.807Z,1.21
2019-03-26T00:06:17.168Z,1.2
2019-03-26T00:06:21.459Z,1.2
2019-03-26T00:06:25.758Z,1.21
2019-03-26T00:06:30.053Z,1.2
2019-03-26T00:06:34.254Z,1.21
2019-03-26T00:06:38.641Z,1.21
2019-03-26T00:06:42.946Z,1.21
2019-03-26T00:06:47.237Z,1.21
2019-03-26T00:06:51.540Z,1.22
2019-03-26T00:06:55.911Z,1.21
2019-03-26T00:07:32.208Z,1.21
2019-03-26T00:07:36.506Z,1.22
2019-03-26T00:07:40.895Z,1.22
2019-03-26T00:07:45.187Z,1.23
2019-03-26T00:07:49.519Z,1.24
2019-03-26T00:07:53.812Z,1.23
2019-03-26T00:07:58.106Z,1.22
2019-03-26T00:08:02.486Z,1.23
2019-03-26T00:08:06.782Z,1.24
2019-03-26T00:08:11.099Z,1.24
2019-03-26T00:08:15.305Z,1.23
2019-03-26T00:08:19.597Z,1.23
2019-03-26T00:08:23.894Z,1.24
2019-03-26T00:08:28.185Z,1.24
2019-03-26T00:08:32.479Z,1.25
2019-03-26T00:08:36.777Z,1.24
2019-03-26T00:08:41.071Z,1.25
2019-03-26T00:08:45.372Z,1.25
2019-03-26T00:08:49.657Z,1.25
2019-03-26T00:08:53.858Z,1.26
2019-03-26T00:08:58.162Z,1.26
2019-03-26T00:09:02.548Z,1.25
2019-03-26T00:09:06.761Z,1.26
2019-03-26T00:09:11.055Z,1.27
2019-03-26T00:09:15.389Z,1.27
2019-03-26T00:09:19.681Z,1.27
2019-03-26T00:09:23.975Z,1.27
2019-03-26T00:09:28.266Z,1.27
2019-03-26T00:09:32.578Z,1.27
2019-03-26T00:09:36.772Z,1.27
2019-03-26T00:09:41.069Z,1.27
2019-03-26T00:09:45.269Z,1.29
2019-03-26T00:09:49.566Z,1.28
2019-03-26T00:09:53.870Z,1.29
2019-03-26T00:09:58.161Z,1.3
2019-03-26T00:10:02.728Z,1.31
2019-03-26T00:10:07.046Z,1.3
2019-03-26T00:10:11.334Z,1.3
2019-03-26T00:10:15.679Z,1.3
2019-03-26T00:10:19.971Z,1.31
2019-03-26T00:10:24.182Z,1.31
2019-03-26T00:10:28.469Z,1.32
2019-03-26T00:10:32.762Z,1.32
2019-03-26T00:10:37.060Z,1.32
2019-03-26T00:10:41.359Z,1.32
2019-03-26T00:10:45.658Z,1.33
2019-03-26T00:10:49.969Z,1.33
2019-03-26T00:10:54.267Z,1.34
2019-03-26T00:10:58.645Z,1.34
2019-03-26T00:11:02.943Z,1.34
2019-03-26T00:11:07.241Z,1.34
2019-03-26T00:11:11.543Z,1.34
2019-03-26T00:11:15.848Z,1.34
2019-03-26T00:11:20.045Z,1.35
2019-03-26T00:11:24.362Z,1.36
2019-03-26T00:11:28.660Z,1.34
2019-03-26T00:11:32.855Z,1.35
2019-03-26T00:11:37.044Z,1.35
2019-03-26T00:11:41.334Z,1.35
2019-03-26T00:11:45.644Z,1.36
2019-03-26T00:11:49.928Z,1.36
2019-03-26T00:11:54.227Z,1.35
2019-03-26T00:11:58.442Z,1.37
2019-03-26T00:12:02.740Z,1.37
2019-03-26T00:12:07.039Z,1.37
2019-03-26T00:12:11.365Z,1.38
2019-03-26T00:12:15.665Z,1.38
2019-03-26T00:12:19.863Z,1.38
2019-03-26T00:12:24.163Z,1.39
2019-03-26T00:12:28.453Z,1.39
2019-03-26T00:12:32.757Z,1.4
2019-03-26T00:12:37.131Z,1.39
2019-03-26T00:12:41.430Z,1.39
2019-03-26T00:12:45.727Z,1.39
2019-03-26T00:12:50.022Z,1.39
2019-03-26T00:12:54.310Z,1.39
2019-03-26T00:12:58.503Z,1.4
2019-03-26T00:13:02.797Z,1.39
2019-03-26T00:13:07.104Z,1.41
2019-03-26T00:13:11.310Z,1.4
2019-03-26T00:13:15.639Z,1.4
2019-03-26T00:13:19.948Z,1.42
2019-03-26T00:13:24.253Z,1.42
2019-03-26T00:13:28.549Z,1.41
2019-03-26T00:13:32.844Z,1.41
2019-03-26T00:13:37.236Z,1.42
2019-03-26T00:13:41.536Z,1.43
2019-03-26T00:13:45.831Z,1.42
2019-03-26T00:13:50.195Z,1.44
2019-03-26T00:13:57.475Z,1.43
2019-03-26T00:14:02.118Z,1.43
2019-03-26T00:14:06.314Z,1.43
2019-03-26T00:14:10.514Z,1.43
2019-03-26T00:14:14.832Z,1.43
2019-03-26T00:14:19.042Z,1.43
2019-03-26T00:14:23.423Z,1.44
2019-03-26T00:14:27.747Z,1.44
2019-03-26T00:14:32.050Z,1.43
2019-03-26T00:14:36.411Z,1.43
2019-03-26T00:14:40.621Z,1.43
2019-03-26T00:14:44.918Z,1.43
2019-03-26T00:14:49.244Z,1.44
2019-03-26T00:14:53.539Z,1.44
2019-03-26T00:14:57.836Z,1.44
2019-03-26T00:15:02.049Z,1.44
2019-03-26T00:15:06.239Z,1.43
2019-03-26T00:15:10.531Z,1.44
2019-03-26T00:15:14.733Z,1.44
2019-03-26T00:15:19.026Z,1.44
2019-03-26T00:15:23.340Z,1.43
2019-03-26T00:15:27.537Z,1.44
2019-03-26T00:15:31.736Z,1.44
2019-03-26T00:15:36.035Z,1.43
2019-03-26T00:15:40.325Z,1.43
2019-03-26T00:15:44.623Z,1.43
2019-03-26T00:15:48.931Z,1.44
2019-03-26T00:15:53.325Z,1.44
2019-03-26T00:15:57.628Z,1.44
2019-03-26T00:16:01.845Z,1.43
2019-03-26T00:16:06.157Z,1.43
2019-03-26T00:16:10.463Z,1.44
2019-03-26T00:16:14.694Z,1.43
2019-03-26T00:16:18.989Z,1.42
2019-03-26T00:16:23.323Z,1.42
2019-03-26T00:16:27.616Z,1.44
2019-03-26T00:16:31.945Z,1.42
2019-03-26T00:16:36.241Z,1.43
2019-03-26T00:16:40.436Z,1.43
2019-03-26T00:16:44.634Z,1.43
2019-03-26T00:16:48.953Z,1.43
2019-03-26T00:16:53.265Z,1.43
2019-03-26T00:16:57.631Z,1.42
2019-03-26T00:17:01.934Z,1.42
2019-03-26T00:17:06.236Z,1.41
2019-03-26T00:17:10.456Z,1.41
2019-03-26T00:17:14.663Z,1.41
2019-03-26T00:17:18.829Z,1.41
2019-03-26T00:17:23.123Z,1.42
2019-03-26T00:17:27.402Z,1.41
2019-03-26T00:17:31.702Z,1.41
2019-03-26T00:17:35.811Z,1.41
2019-03-26T00:17:40.015Z,1.4
2019-03-26T00:17:44.305Z,1.41
2019-03-26T00:17:48.613Z,1.4
2019-03-26T00:17:52.911Z,1.4
2019-03-26T00:17:57.211Z,1.4
2019-03-26T00:18:01.505Z,1.4
2019-03-26T00:18:05.807Z,1.39
2019-03-26T00:18:10.172Z,1.38
2019-03-26T00:18:14.468Z,1.4
2019-03-26T00:18:18.665Z,1.39
2019-03-26T00:18:22.960Z,1.39
2019-03-26T00:18:27.250Z,1.39
2019-03-26T00:18:31.580Z,1.38
2019-03-26T00:18:35.925Z,1.37
2019-03-26T00:18:40.238Z,1.36
2019-03-26T00:18:44.537Z,1.37
2019-03-26T00:18:48.877Z,1.37
2019-03-26T00:18:53.197Z,1.37
2019-03-26T00:18:57.490Z,1.37
2019-03-26T00:19:01.708Z,1.37
2019-03-26T00:19:05.923Z,1.37
2019-03-26T00:19:10.229Z,1.36
2019-03-26T00:19:14.526Z,1.36
2019-03-26T00:19:18.719Z,1.37
2019-03-26T00:19:23.077Z,1.36
2019-03-26T00:19:27.413Z,1.36
2019-03-26T00:19:31.709Z,1.36
2019-03-26T00:19:35.997Z,1.36
2019-03-26T00:19:40.200Z,1.36
2019-03-26T00:19:44.495Z,1.35
2019-03-26T00:19:48.793Z,1.36
2019-03-26T00:19:53.088Z,1.35
2019-03-26T00:19:57.384Z,1.34
2019-03-26T00:20:01.890Z,1.35
2019-03-26T00:20:06.196Z,1.34
2019-03-26T00:20:10.488Z,1.35
2019-03-26T00:20:14.779Z,1.34
2019-03-26T00:20:19.080Z,1.34
2019-03-26T00:20:23.180Z,1.34
2019-03-26T00:20:27.470Z,1.34
2019-03-26T00:20:31.764Z,1.33
2019-03-26T00:20:36.083Z,1.34
2019-03-26T00:20:40.380Z,1.34
2019-03-26T00:20:44.702Z,1.34
2019-03-26T00:20:48.903Z,1.33
2019-03-26T00:20:53.106Z,1.33
2019-03-26T00:20:57.402Z,1.33
2019-03-26T00:21:01.753Z,1.33
2019-03-26T00:21:06.112Z,1.32
2019-03-26T00:21:10.313Z,1.32
2019-03-26T00:21:14.601Z,1.32
2019-03-26T00:21:18.894Z,1.33
2019-03-26T00:21:22.990Z,1.33
2019-03-26T00:21:27.192Z,1.33
2019-03-26T00:21:31.491Z,1.32
2019-03-26T00:21:35.793Z,1.32
2019-03-26T00:21:40.075Z,1.32
2019-03-26T00:21:44.365Z,1.31
2019-03-26T00:21:48.659Z,1.31
2019-03-26T00:21:52.995Z,1.31
2019-03-26T00:21:57.195Z,1.31
2019-03-26T00:22:01.498Z,1.3
2019-03-26T00:22:05.504Z,1.3
2019-03-26T00:22:09.707Z,1.31
2019-03-26T00:22:13.806Z,1.3
2019-03-26T00:22:18.002Z,1.3
2019-03-26T00:22:22.301Z,1.3
2019-03-26T00:22:26.603Z,1.3
2019-03-26T00:22:30.894Z,1.31
2019-03-26T00:22:35.188Z,1.29
2019-03-26T00:22:39.489Z,1.29
2019-03-26T00:22:43.702Z,1.3
2019-03-26T00:22:47.993Z,1.29
2019-03-26T00:22:52.290Z,1.29
2019-03-26T00:22:56.515Z,1.29
2019-03-26T00:23:00.821Z,1.28
2019-03-26T00:23:05.113Z,1.29
2019-03-26T00:23:09.411Z,1.29
2019-03-26T00:23:13.804Z,1.29
2019-03-26T00:23:18.112Z,1.28
2019-03-26T00:23:22.405Z,1.28
2019-03-26T00:23:26.604Z,1.28
2019-03-26T00:23:30.894Z,1.29
2019-03-26T00:23:35.273Z,1.29
2019-03-26T00:23:39.571Z,1.28
2019-03-26T00:23:43.864Z,1.27
2019-03-26T00:23:48.223Z,1.28
2019-03-26T00:23:52.527Z,1.27
2019-03-26T00:23:56.827Z,1.27
2019-03-26T00:24:01.225Z,1.27
2019-03-26T00:24:05.698Z,1.27
2019-03-26T00:24:10.038Z,1.27
2019-03-26T00:24:14.351Z,1.26
2019-03-26T00:24:18.735Z,1.26
2019-03-26T00:24:23.052Z,1.26
2019-03-26T00:24:27.251Z,1.25
2019-03-26T00:24:31.616Z,1.26
2019-03-26T00:24:35.912Z,1.25
2019-03-26T00:24:40.119Z,1.25
2019-03-26T00:24:44.413Z,1.25
2019-03-26T00:24:48.747Z,1.25
2019-03-26T00:24:53.049Z,1.25
2019-03-26T00:24:57.359Z,1.24
2019-03-26T00:25:01.950Z,1.25
2019-03-26T00:25:06.258Z,1.24
2019-03-26T00:25:10.559Z,1.24
2019-03-26T00:25:14.913Z,1.24
2019-03-26T00:25:19.208Z,1.23
2019-03-26T00:25:23.504Z,1.23
2019-03-26T00:25:27.859Z,1.23
2019-03-26T00:25:32.167Z,1.24
2019-03-26T00:25:36.362Z,1.23
2019-03-26T00:25:40.559Z,1.23
2019-03-26T00:25:44.931Z,1.23
2019-03-26T00:25:49.258Z,1.23
2019-03-26T00:25:53.579Z,1.23
2019-03-26T00:25:57.933Z,1.22
2019-03-26T00:26:02.232Z,1.23
2019-03-26T00:26:06.530Z,1.23
2019-03-26T00:26:10.824Z,1.22
2019-03-26T00:26:15.124Z,1.22
2019-03-26T00:26:19.419Z,1.2
2019-03-26T00:26:23.710Z,1.21
2019-03-26T00:26:28.006Z,1.21
2019-03-26T00:26:32.300Z,1.21
2019-03-26T00:26:36.600Z,1.2
2019-03-26T00:26:40.892Z,1.21
2019-03-26T00:26:45.086Z,1.2
2019-03-26T00:26:49.381Z,1.2
2019-03-26T00:26:53.709Z,1.2
2019-03-26T00:26:58.010Z,1.2
2019-03-26T00:27:02.299Z,1.2
2019-03-26T00:27:09.862Z,1.2
2019-03-26T00:27:14.154Z,1.2
2019-03-26T00:27:18.356Z,1.2
2019-03-26T00:27:22.549Z,1.2
2019-03-26T00:27:26.853Z,1.19
2019-03-26T00:27:31.156Z,1.19
2019-03-26T00:27:35.452Z,1.18
2019-03-26T00:27:39.752Z,1.18
2019-03-26T00:27:44.053Z,1.18
2019-03-26T00:27:48.349Z,1.18
2019-03-26T00:27:52.648Z,1.17
2019-03-26T00:27:56.958Z,1.18
2019-03-26T00:28:01.257Z,1.17
2019-03-26T00:28:05.611Z,1.17
2019-03-26T00:28:09.943Z,1.17
2019-03-26T00:28:14.247Z,1.17
2019-03-26T00:28:18.436Z,1.17
2019-03-26T00:28:22.742Z,1.16
2019-03-26T00:28:27.039Z,1.18
2019-03-26T00:28:31.331Z,1.17
2019-03-26T00:28:35.533Z,1.17
2019-03-26T00:28:39.844Z,1.17
2019-03-26T00:28:44.135Z,1.16
2019-03-26T00:28:48.470Z,1.16
2019-03-26T00:28:52.763Z,1.16
2019-03-26T00:28:56.960Z,1.15
2019-03-26T00:29:01.202Z,1.16
2019-03-26T00:29:05.413Z,1.14
2019-03-26T00:29:09.719Z,1.14
2019-03-26T00:29:14.021Z,1.15
2019-03-26T00:29:18.316Z,1.16
2019-03-26T00:29:22.436Z,1.14
2019-03-26T00:29:26.467Z,1.15
2019-03-26T00:29:30.761Z,1.15
2019-03-26T00:29:35.059Z,1.14
2019-03-26T00:29:39.352Z,1.14
2019-03-26T00:29:43.693Z,1.14
2019-03-26T00:29:47.897Z,1.14
2019-03-26T00:29:52.192Z,1.13
2019-03-26T00:29:56.494Z,1.14
2019-03-26T00:30:01.171Z,1.14
2019-03-26T00:30:05.583Z,1.14
2019-03-26T00:30:09.935Z,1.14
2019-03-26T00:30:14.215Z,1.14
2019-03-26T00:30:18.411Z,1.13
2019-03-26T00:30:22.714Z,1.13
2019-03-26T00:30:27.003Z,1.13
2019-03-26T00:30:31.311Z,1.13
2019-03-26T00:30:35.609Z,1.13
2019-03-26T00:30:39.913Z,1.13
2019-03-26T00:30:44.214Z,1.12
2019-03-26T00:30:48.512Z,1.12
2019-03-26T00:30:52.723Z,1.12
2019-03-26T00:30:56.928Z,1.12
2019-03-26T00:31:01.032Z,1.12
2019-03-26T00:31:05.405Z,1.12
2019-03-26T00:31:09.733Z,1.12
2019-03-26T00:31:14.023Z,1.11
2019-03-26T00:31:18.317Z,1.13
2019-03-26T00:31:22.517Z,1.12
2019-03-26T00:31:26.719Z,1.12
2019-03-26T00:31:30.920Z,1.12
2019-03-26T00:31:35.213Z,1.11
2019-03-26T00:31:39.504Z,1.11
2019-03-26T00:31:43.798Z,1.11
2019-03-26T00:31:48.090Z,1.11
2019-03-26T00:31:52.387Z,1.11
2019-03-26T00:31:56.675Z,1.11
2019-03-26T00:32:00.873Z,1.11
2019-03-26T00:32:05.176Z,1.12
2019-03-26T00:32:09.492Z,1.11
2019-03-26T00:32:13.861Z,1.11
2019-03-26T00:32:18.080Z,1.11
2019-03-26T00:32:25.030Z,1.11
2019-03-26T00:32:29.356Z,1.11
2019-03-26T00:32:33.653Z,1.1
2019-03-26T00:32:37.856Z,1.11
2019-03-26T00:32:42.154Z,1.11
2019-03-26T00:32:46.356Z,1.1
2019-03-26T00:32:50.670Z,1.11
2019-03-26T00:32:54.975Z,1.1
2019-03-26T00:32:59.276Z,1.1
2019-03-26T00:33:03.572Z,1.1
2019-03-26T00:33:07.831Z,1.1
2019-03-26T00:33:12.146Z,1.09
2019-03-26T00:33:16.442Z,1.09
2019-03-26T00:33:20.742Z,1.08
2019-03-26T00:33:39.146Z,1.09
2019-03-26T00:33:43.353Z,1.08
2019-03-26T00:33:47.557Z,1.08
2019-03-26T00:33:51.763Z,1.08
2019-03-26T00:33:56.070Z,1.07
2019-03-26T00:34:00.188Z,1.07
2019-03-26T00:34:04.496Z,1.08
2019-03-26T00:34:22.824Z,1.07
2019-03-26T00:34:27.172Z,1.07
2019-03-26T00:34:31.469Z,1.07
2019-03-26T00:34:35.764Z,1.06
2019-03-26T00:34:40.060Z,1.06
2019-03-26T00:34:44.431Z,1.06
2019-03-26T00:34:48.739Z,1.07
2019-03-26T00:34:52.934Z,1.07
2019-03-26T00:34:57.239Z,1.07
2019-03-26T00:35:01.869Z,1.05
2019-03-26T00:35:06.178Z,1.06
2019-03-26T00:35:10.383Z,1.05
2019-03-26T00:35:14.667Z,1.06
2019-03-26T00:35:18.880Z,1.06
2019-03-26T00:35:23.181Z,1.05
2019-03-26T00:35:27.469Z,1.05
2019-03-26T00:35:31.774Z,1.05
2019-03-26T00:35:36.077Z,1.05
2019-03-26T00:35:40.363Z,1.05
2019-03-26T00:35:44.657Z,1.05
2019-03-26T00:35:48.956Z,1.05
2019-03-26T00:35:53.251Z,1.06
2019-03-26T00:35:57.551Z,1.05
2019-03-26T00:36:02.045Z,1.05
2019-03-26T00:36:06.258Z,1.03
2019-03-26T00:36:10.551Z,1.05
2019-03-26T00:36:14.848Z,1.04
2019-03-26T00:36:19.075Z,1.04
2019-03-26T00:36:23.386Z,1.03
2019-03-26T00:36:27.693Z,1.03
2019-03-26T00:36:31.995Z,1.03
2019-03-26T00:36:36.299Z,1.02
2019-03-26T00:36:40.597Z,1.03
2019-03-26T00:36:44.888Z,1.02
2019-03-26T00:36:49.144Z,1.02
2019-03-26T00:36:53.438Z,1.02
2019-03-26T00:36:57.738Z,1.01
2019-03-26T00:37:02.036Z,1.02
2019-03-26T00:37:06.334Z,1.01
2019-03-26T00:37:10.645Z,1.02
2019-03-26T00:37:14.936Z,1.01
2019-03-26T00:37:19.200Z,1.01
2019-03-26T00:37:23.504Z,1.01
2019-03-26T00:37:27.819Z,1
2019-03-26T00:37:32.115Z,1.01
2019-03-26T00:37:36.424Z,1.01
2019-03-26T00:37:40.730Z,1.01
2019-03-26T00:37:45.032Z,1.01
2019-03-26T00:37:49.329Z,1.01
2019-03-26T00:37:53.527Z,1.01
2019-03-26T00:37:57.819Z,1.01
2019-03-26T00:38:02.194Z,1
2019-03-26T00:38:06.513Z,1
2019-03-26T00:38:10.804Z,0.99
2019-03-26T00:38:15.107Z,0.99
2019-03-26T00:38:19.302Z,1
2019-03-26T00:38:23.601Z,0.99
2019-03-26T00:38:28.123Z,0.99
2019-03-26T00:38:32.680Z,0.98
2019-03-26T00:38:37.382Z,0.99
2019-03-26T00:38:42.162Z,0.99
2019-03-26T00:38:47.378Z,0.99
2019-03-26T00:38:52.744Z,0.99
2019-03-26T00:38:57.042Z,0.99
2019-03-26T00:39:01.268Z,0.99
2019-03-26T00:39:05.573Z,0.99
2019-03-26T00:39:09.788Z,0.99
2019-03-26T00:39:14.089Z,0.98
2019-03-26T00:39:18.389Z,0.99
2019-03-26T00:39:22.606Z,0.98
2019-03-26T00:39:26.916Z,0.98
2019-03-26T00:39:31.107Z,0.98
2019-03-26T00:39:35.403Z,0.99
2019-03-26T00:39:39.722Z,0.99
2019-03-26T00:39:44.015Z,0.99
2019-03-26T00:39:48.338Z,0.98
2019-03-26T00:39:52.654Z,0.98
2019-03-26T00:39:56.946Z,0.98
2019-03-26T00:40:01.245Z,0.98
2019-03-26T00:40:05.533Z,0.97
2019-03-26T00:40:09.825Z,0.98
2019-03-26T00:40:14.134Z,0.98
2019-03-26T00:40:18.437Z,0.97
2019-03-26T00:40:22.756Z,0.98
2019-03-26T00:40:27.092Z,0.98
2019-03-26T00:40:31.400Z,0.97
2019-03-26T00:40:35.701Z,0.97
2019-03-26T00:40:43.131Z,0.97
2019-03-26T00:40:47.427Z,0.97
2019-03-26T00:40:51.620Z,0.96
2019-03-26T00:40:55.910Z,0.97
2019-03-26T00:41:00.220Z,0.96
2019-03-26T00:41:04.663Z,0.97
2019-03-26T00:41:08.958Z,0.96
2019-03-26T00:41:13.253Z,0.97
2019-03-26T00:41:17.558Z,0.97
2019-03-26T00:41:21.765Z,0.96
2019-03-26T00:41:25.865Z,0.97
2019-03-26T00:41:30.157Z,0.96
2019-03-26T00:41:34.362Z,0.96
2019-03-26T00:41:38.675Z,0.96
2019-03-26T00:41:42.977Z,0.96
2019-03-26T00:41:47.271Z,0.96
2019-03-26T00:41:51.568Z,0.95
2019-03-26T00:41:55.869Z,0.96
2019-03-26T00:42:00.169Z,0.95
2019-03-26T00:42:04.502Z,0.95
2019-03-26T00:42:08.798Z,0.94
2019-03-26T00:42:13.006Z,0.95
2019-03-26T00:42:17.299Z,0.95
2019-03-26T00:42:21.501Z,0.95
2019-03-26T00:42:25.770Z,0.95
2019-03-26T00:42:30.069Z,0.95
2019-03-26T00:42:34.362Z,0.95
2019-03-26T00:42:38.563Z,0.95
2019-03-26T00:42:42.848Z,0.95
2019-03-26T00:42:47.044Z,0.95
2019-03-26T00:42:51.338Z,0.95
2019-03-26T00:42:55.656Z,0.95
2019-03-26T00:42:59.957Z,0.95
2019-03-26T00:43:04.173Z,0.94
2019-03-26T00:43:08.469Z,0.95
2019-03-26T00:43:12.764Z,0.94
2019-03-26T00:43:16.967Z,0.94
2019-03-26T00:43:21.258Z,0.95
2019-03-26T00:43:25.553Z,0.95
2019-03-26T00:43:29.850Z,0.93
2019-03-26T00:43:34.149Z,0.94
2019-03-26T00:43:38.450Z,0.94
2019-03-26T00:43:42.761Z,0.94
2019-03-26T00:43:47.057Z,0.93
2019-03-26T00:43:51.359Z,0.94
2019-03-26T00:43:55.653Z,0.94
2019-03-26T00:43:59.871Z,0.93
2019-03-26T00:44:04.265Z,0.93
2019-03-26T00:44:08.554Z,0.94
2019-03-26T00:44:12.844Z,0.93
2019-03-26T00:44:17.133Z,0.93
2019-03-26T00:44:21.466Z,0.93
2019-03-26T00:44:25.768Z,0.92
2019-03-26T00:44:30.112Z,0.92
2019-03-26T00:44:34.408Z,0.92
2019-03-26T00:44:38.701Z,0.93
2019-03-26T00:44:43.018Z,0.93
2019-03-26T00:44:47.317Z,0.92
2019-03-26T00:44:51.608Z,0.92
2019-03-26T00:44:55.909Z,0.92
2019-03-26T00:45:00.350Z,0.92
2019-03-26T00:45:04.655Z,0.92
2019-03-26T00:45:08.951Z,0.92
2019-03-26T00:45:13.243Z,0.92
2019-03-26T00:45:17.618Z,0.93
2019-03-26T00:45:21.913Z,0.92
2019-03-26T00:45:26.117Z,0.9
2019-03-26T00:45:30.315Z,0.91
2019-03-26T00:45:34.513Z,0.92
2019-03-26T00:45:38.806Z,0.91
2019-03-26T00:45:43.097Z,0.92
2019-03-26T00:45:47.420Z,0.92
2019-03-26T00:45:51.719Z,0.91
2019-03-26T00:45:55.927Z,0.91
2019-03-26T00:46:00.228Z,0.92
2019-03-26T00:46:04.529Z,0.91
2019-03-26T00:46:08.834Z,0.91
2019-03-26T00:46:13.137Z,0.91
2019-03-26T00:46:17.333Z,0.91
2019-03-26T00:46:21.547Z,0.91
2019-03-26T00:46:25.839Z,0.91
2019-03-26T00:46:30.062Z,0.9
2019-03-26T00:46:34.255Z,0.9
2019-03-26T00:46:38.447Z,0.9
2019-03-26T00:46:42.747Z,0.89
2019-03-26T00:46:47.048Z,0.9
2019-03-26T00:46:51.143Z,0.9
2019-03-26T00:46:55.445Z,0.9
2019-03-26T00:46:59.736Z,0.89
2019-03-26T00:47:04.094Z,0.9
2019-03-26T00:47:08.402Z,0.89
2019-03-26T00:47:12.691Z,0.89
2019-03-26T00:47:16.992Z,0.89
2019-03-26T00:47:21.180Z,0.89
2019-03-26T00:47:25.486Z,0.88
2019-03-26T00:47:29.778Z,0.9
2019-03-26T00:47:33.978Z,0.89
2019-03-26T00:47:38.329Z,0.89
2019-03-26T00:47:42.599Z,0.9
2019-03-26T00:47:46.912Z,0.89
2019-03-26T00:47:51.202Z,0.89
2019-03-26T00:47:55.514Z,0.9
2019-03-26T00:47:59.813Z,0.89
2019-03-26T00:48:04.277Z,0.89
2019-03-26T00:48:08.483Z,0.89
2019-03-26T00:48:12.784Z,0.88
2019-03-26T00:48:16.896Z,0.89
2019-03-26T00:48:21.215Z,0.88
2019-03-26T00:48:25.574Z,0.89
2019-03-26T00:48:29.881Z,0.89
2019-03-26T00:48:34.235Z,0.89
2019-03-26T00:48:38.522Z,0.89
2019-03-26T00:48:42.819Z,0.89
2019-03-26T00:48:47.116Z,0.88
2019-03-26T00:48:51.406Z,0.88
2019-03-26T00:48:55.706Z,0.89
2019-03-26T00:48:59.903Z,0.89
2019-03-26T00:49:04.107Z,0.88
2019-03-26T00:49:08.262Z,0.88
2019-03-26T00:49:12.575Z,0.88
2019-03-26T00:49:16.872Z,0.88
2019-03-26T00:49:21.177Z,0.87
2019-03-26T00:49:25.549Z,0.89
2019-03-26T00:49:29.870Z,0.88
2019-03-26T00:49:34.170Z,0.89
2019-03-26T00:49:38.274Z,0.89
2019-03-26T00:49:42.480Z,0.88
2019-03-26T00:49:46.793Z,0.88
2019-03-26T00:49:50.995Z,0.88
2019-03-26T00:49:55.295Z,0.88
2019-03-26T00:49:59.489Z,0.88
2019-03-26T00:50:03.881Z,0.88
2019-03-26T00:50:08.186Z,0.88
2019-03-26T00:50:12.476Z,0.88
2019-03-26T00:50:16.772Z,0.88
2019-03-26T00:50:21.129Z,0.87
2019-03-26T00:50:25.423Z,0.88
2019-03-26T00:50:29.716Z,0.88
2019-03-26T00:50:34.009Z,0.87
2019-03-26T00:50:38.302Z,0.88
2019-03-26T00:50:42.606Z,0.88
2019-03-26T00:50:46.903Z,0.88
2019-03-26T00:50:51.275Z,0.87
2019-03-26T00:50:55.595Z,0.88
2019-03-26T00:50:59.809Z,0.87
2019-03-26T00:51:04.158Z,0.88
2019-03-26T00:51:08.375Z,0.88
2019-03-26T00:51:12.681Z,0.87
2019-03-26T00:51:16.980Z,0.88
2019-03-26T00:51:21.183Z,0.88
2019-03-26T00:51:25.446Z,0.88
2019-03-26T00:51:29.740Z,0.87
2019-03-26T00:51:34.036Z,0.87
2019-03-26T00:51:38.240Z,0.87
2019-03-26T00:51:42.538Z,0.88
2019-03-26T00:51:46.832Z,0.88
2019-03-26T00:51:51.165Z,0.88
2019-03-26T00:51:55.374Z,0.88
2019-03-26T00:51:59.669Z,0.88
2019-03-26T00:52:03.905Z,0.87
2019-03-26T00:52:08.202Z,0.88
2019-03-26T00:52:12.522Z,0.88
2019-03-26T00:52:16.824Z,0.88
2019-03-26T00:52:21.027Z,0.88
2019-03-26T00:52:25.324Z,0.87
2019-03-26T00:52:29.644Z,0.87
2019-03-26T00:52:33.870Z,0.88
2019-03-26T00:52:38.185Z,0.87
2019-03-26T00:52:42.491Z,0.87
2019-03-26T00:52:46.864Z,0.87
2019-03-26T00:52:51.164Z,0.87
2019-03-26T00:52:55.365Z,0.88
2019-03-26T00:52:59.668Z,0.88
2019-03-26T00:53:03.963Z,0.88
2019-03-26T00:53:08.179Z,0.88
2019-03-26T00:53:12.379Z,0.87
2019-03-26T00:53:16.677Z,0.87
2019-03-26T00:53:20.978Z,0.87
2019-03-26T00:53:25.280Z,0.88
2019-03-26T00:53:29.584Z,0.86
2019-03-26T00:54:05.782Z,0.88
2019-03-26T00:54:09.799Z,0.88
2019-03-26T00:54:14.001Z,0.88
2019-03-26T00:54:18.304Z,0.88
2019-03-26T00:54:22.597Z,0.87
2019-03-26T00:54:26.909Z,0.88
2019-03-26T00:54:31.209Z,0.88
2019-03-26T00:54:35.498Z,0.88
2019-03-26T00:54:39.797Z,0.88
2019-03-26T00:54:44.100Z,0.89
2019-03-26T00:54:48.397Z,0.88
2019-03-26T00:54:52.596Z,0.88
2019-03-26T00:54:56.899Z,0.89
2019-03-26T00:55:01.101Z,0.88
2019-03-26T00:55:05.504Z,0.88
2019-03-26T00:55:23.948Z,0.88
2019-03-26T00:55:28.252Z,0.89
2019-03-26T00:55:32.554Z,0.89
2019-03-26T00:55:36.857Z,0.89
2019-03-26T00:55:41.254Z,0.89
2019-03-26T00:55:45.551Z,0.89
2019-03-26T00:55:49.760Z,0.89
2019-03-26T00:55:54.063Z,0.89
2019-03-26T00:55:58.360Z,0.89
2019-03-26T00:56:02.806Z,0.89
2019-03-26T00:56:07.100Z,0.89
2019-03-26T00:56:11.415Z,0.89
2019-03-26T00:56:15.741Z,0.89
2019-03-26T00:56:20.044Z,0.89
2019-03-26T00:56:24.336Z,0.89
2019-03-26T00:56:28.632Z,0.89
2019-03-26T00:56:32.831Z,0.88
2019-03-26T00:56:37.049Z,0.89
2019-03-26T00:56:41.347Z,0.89
2019-03-26T00:56:45.663Z,0.89
2019-03-26T00:56:49.957Z,0.88
2019-03-26T00:56:54.253Z,0.88
2019-03-26T00:56:58.452Z,0.88
2019-03-26T00:57:02.764Z,0.89
2019-03-26T00:57:07.067Z,0.89
2019-03-26T00:57:11.260Z,0.88
2019-03-26T00:57:15.563Z,0.89
2019-03-26T00:57:19.876Z,0.89
2019-03-26T00:57:24.175Z,0.89
2019-03-26T00:57:28.375Z,0.89
2019-03-26T00:57:32.676Z,0.9
2019-03-26T00:57:36.971Z,0.89
2019-03-26T00:57:41.261Z,0.89
2019-03-26T00:57:45.553Z,0.89
2019-03-26T00:57:49.920Z,0.89
2019-03-26T00:57:54.214Z,0.89
2019-03-26T00:58:01.458Z,0.88
2019-03-26T00:58:05.976Z,0.89
2019-03-26T00:58:10.181Z,0.89
2019-03-26T00:58:14.475Z,0.89
2019-03-26T00:58:18.788Z,0.89
2019-03-26T00:58:23.102Z,0.89
2019-03-26T00:58:27.314Z,0.88
2019-03-26T00:58:31.609Z,0.88
2019-03-26T00:58:35.810Z,0.88
2019-03-26T00:58:40.104Z,0.88
2019-03-26T00:58:44.405Z,0.89
2019-03-26T00:58:48.712Z,0.89
2019-03-26T00:58:53.011Z,0.89
2019-03-26T00:58:57.227Z,0.88
2019-03-26T00:59:01.513Z,0.88
2019-03-26T00:59:05.832Z,0.89
2019-03-26T00:59:10.126Z,0.89
2019-03-26T00:59:14.425Z,0.88
2019-03-26T00:59:18.635Z,0.88
2019-03-26T00:59:22.923Z,0.88
2019-03-26T00:59:27.237Z,0.88
2019-03-26T00:59:31.549Z,0.87
2019-03-26T00:59:35.745Z,0.88
2019-03-26T00:59:40.040Z,0.88